Immagine casuale
Testata Regione Lazio ARSIAL SIARL

Ultima Misura Rilevata

Temperatura, Umidità, Pioggia, Pressione Radiazione Solare, Venti, Evapotraspirazione, ecc.
Temperature diurne e notturne Direzione vento Legenda
Prov Stazione Data TMin TMed TMax UMed Pioggia PMed
FR ALATRI Basciano 22/07/2021 19,3 24,8 36,5 58 23,6 1.016
FR ALVITO Az. Ist. S. Benedetto 22/07/2021 15,7 23,8 34,3 67 0 1.015
FR ANAGNI La Gloria 22/07/2021 16,9 25,9 35,2 56 0 1.014
FR ARPINO Vigne Piane 22/07/2021 20,8 24,7 34,3 58 0,4 1.020
FR BOVILLE ERNICA Sasso 22/07/2021 19 24,3 35,8 71 6 1.016
FR CECCANO C.da Passo del Cardinale 22/07/2021 15,1 24,3 34,7 74 2 ----
FR ESPERIA Modale 22/07/2021 17,2 25,7 37,1 65 0 1.019
FR PASTENA Acero 22/07/2021 15,1 24,5 35,3 69 0,2 1.018
FR PIGLIO Civitella 22/07/2021 17,1 25,6 36,2 57 0 1.013
FR PONTECORVO Melfi di Sotto 22/07/2021 17,2 25,4 37 68 0 ----
FR S. ELIA FIUMERAPIDO Portella 22/07/2021 19,7 26,1 36,1 62 0 1.015
FR S. GIORGIO A LIRI Porto 22/07/2021 17,7 25,6 35,7 74 0,2 1.020
FR SGURGOLA Campo Lungo 22/07/2021 16 26 37,4 62 0 ----
FR VALLECORSA Serbatoio comunale 22/07/2021 20,4 24,8 31,4 62 0,6 1.015
LT APRILIA Le Ferriere 22/07/2021 19,8 26,6 36 69 0 1.015
LT CISTERNA B.go Carso 22/07/2021 16,4 24,9 32,3 70 0 ----
LT CISTERNA Doganella di Ninfa 22/07/2021 18 26,2 34,8 62 0 1.015
LT CORI Portone 22/07/2021 19,5 27,1 35,8 55 0 1.015
LT FONDI Capratica 22/07/2021 18,5 25,5 31,5 76 0 1.016
LT FORMIA Loc. Gianola 22/07/2021 18,7 24,9 31,1 80 0 ----
LT ITRI Valle Quercia 22/07/2021 N.D. N.D. N.D. N.D. N.D. N.D.
LT MAENZA Casacotta 22/07/2021 18,6 26,5 34,3 60 0 1.015
LT MINTURNO Pulcherini 22/07/2021 22,6 26,6 32,9 66 0 1.015
LT PONTINIA Cotarda 22/07/2021 16,6 24,8 33 75 0 1.016
LT SABAUDIA Acquaviva 22/07/2021 17,9 24,1 29,6 84 0 1.016
LT SONNINO Frasso 22/07/2021 20,7 27 34,8 72 0 1.015
RI ACCUMOLI Terracino 22/07/2021 16,6 21,1 27,4 66 0 1.017
RI BORGOVELINO Ponte Basso 22/07/2021 16,7 23,5 35,7 71 0 1.017
RI CANTALUPO S. Francesco 22/07/2021 17,1 25,8 35,4 60 0 ----
RI CASTEL DI TORA Monte di Tora 22/07/2021 14,6 23,7 34 64 0 1.016
RI CASTELNUOVO FARFA C. Spadone 22/07/2021 19,3 28,3 37,8 51 0 ----
RI CONFIGNI Portella 22/07/2021 19,5 26,6 35,5 51 0 1.015
RI FARA SABINA Canneto 22/07/2021 21,2 28,3 37,2 47 0 1.014
RI FARA SABINA Sant'Andrea 22/07/2021 20,5 28 37,5 46 0 ----
RI MONTELEONE S. Prato Camino 22/07/2021 17,6 26,2 36,6 53 0 1.017
RI MONTOPOLI IN SABINA Colle Arcone 22/07/2021 18,7 27,3 36,2 55 0 ----
RI MONTOPOLI IN SABINA Villa Caprola 22/07/2021 19,5 28,9 39,1 66 0 ----
RI POGGIO CATINO Pastine 22/07/2021 20,1 27,4 36 48 0 ----
RI POGGIO NATIVO Casali 22/07/2021 20,6 27,1 34,4 51 0 ----
RI RIETI Piana di Rieti 22/07/2021 14,2 24,3 33,4 62 0 1.018
RI SCANDRIGLIA Ponticelli 22/07/2021 19,9 26,4 33,8 52 0 ----
RM AGOSTA La Cisterna 22/07/2021 15,8 24,4 37 61 0 1.019
RM BRACCIANO Prato Pianciano 22/07/2021 19,1 27,9 38,5 50 0 1.016
RM CANALE MONTERANO Monte Virginio 22/07/2021 15,9 25,5 37,6 57 0 1.018
RM CERVETERI Campo di Mare 22/07/2021 19,7 25,6 31,7 70 0 ----
RM CIVITELLA S.PAOLO Le Cese 22/07/2021 17,9 27,3 38 54 0 1.014
RM FIUMICINO Maccarese 22/07/2021 18 25 30,1 79 0,2 1.015
RM FIUMICINO Testa di Lepre 22/07/2021 19,2 27,7 35,9 52 0 ----
RM FORMELLO Perazzeta 22/07/2021 20 28,1 35,6 50 0 ----
RM FRASCATI Prata Porci 22/07/2021 17,8 27 36,6 52 0 1.016
RM GENAZZANO Coop. La Sonnina 22/07/2021 17,7 25,8 34,2 57 0 1.016
RM GROTTAFERRATA Valle Marciana 22/07/2021 20,1 27,1 35,5 50 0 1.015
RM LADISPOLI Palo Laziale 22/07/2021 17,8 23,7 28 77 0 1.016
RM LICENZA Colle Franco 22/07/2021 16,6 25,1 35,5 58 0 1.015
RM MARCELLINA V. Campetella 22/07/2021 19 27,5 36,3 54 0 ----
RM MARINO Gotto d'Oro 22/07/2021 19,2 27,4 34,4 54 0 1.017
RM MONTECOMPATRI Colle Mattia 22/07/2021 17,9 27 36,5 51 0 1.016
RM MONTECOMPATRI Pantano Borghese 22/07/2021 15,8 27,1 38,7 57 0 1.015
RM MONTELIBRETTI Bruciati 22/07/2021 17,7 27,6 38,4 53 0 ----
RM MONTEPORZIO Camaldoli 22/07/2021 18,2 24,5 32,5 56 0 1.016
RM MONTEROTONDO Grotta Marozza 22/07/2021 18,7 28 36,9 51 0 1.017
RM PALOMBARA Fonte Grande 22/07/2021 16,6 26,9 37,8 52 0 ----
RM ROMA Ponte di Nona 22/07/2021 20 28,5 36,8 54 0 1.015
RM ROMA Via Lanciani 38 22/07/2021 22,3 29 34,8 50 0 1.014
RM S. GREGORIO C. Faustiniano 22/07/2021 20,1 27,6 38,5 47 0 1.013
RM VELLETRI Cantina Sperimentale 22/07/2021 19,8 25,9 32,3 57 0 1.017
RM VELLETRI Prato Lungo 22/07/2021 20,2 26,4 33,4 55 0 ----
RM ZAGAROLO Santa Apollara 22/07/2021 19,5 27,7 36,6 52 0 ----
VT ACQUAPENDENTE Falconiera 22/07/2021 15,6 24,4 34,9 56 0 1.018
VT BAGNOREGIO Castell Cellesi 22/07/2021 20,7 26,5 33,6 44 0 ----
VT BASSANO R. Piano Mola 22/07/2021 19,2 26 36,3 56 0 1.019
VT BLERA Puntoni 22/07/2021 17,9 26,1 34 57 0 1.016
VT BOLSENA Capone 22/07/2021 17,1 25,6 38,8 60 0 1.017
VT BOLSENA Rentica 22/07/2021 17,9 24,6 32,6 57 0,4 ----
VT CANINO Diga Timone 22/07/2021 18 25,8 35,6 68 0 1.020
VT CANINO Pianacce 22/07/2021 18,1 27,1 36 53 0 1.016
VT CANINO San Valeriano 22/07/2021 20 27,8 36 48 0 ----
VT CELLENO Acquaforte 22/07/2021 17 25,4 33,9 60 0 ----
VT CORCHIANO Pantalone 22/07/2021 15,3 25,4 36,9 57 0 1.017
VT FARNESE Gressa 22/07/2021 17,1 26 34 48 0 ----
VT FARNESE Pian di Sala 22/07/2021 14,6 24,8 35,2 61 0 ----
VT GROTTE DI CASTRO Borghetto 22/07/2021 16,3 24 33,5 65 9 1.016
VT GROTTE DI CASTRO Purgatorio 22/07/2021 16,4 24,6 36,9 58 1,4 1.014
VT LATERA Centro Florovivaistico 22/07/2021 12,8 22,5 35,1 74 8,8 1.020
VT MONTALTO Le Murelle 22/07/2021 19 24,6 29,6 73 0 1.016
VT MONTALTO Pescia Romana 22/07/2021 18,9 27,7 36,7 60 0 1.015
VT MONTEFIASCONE Commenda 22/07/2021 18,6 25,8 35,2 62 10,2 ----
VT RONCIGLIONE Ponterotto 22/07/2021 16,5 26,1 34,3 55 0 ----
VT SORIANO CIMINO Pantane 22/07/2021 14,3 24,8 36,4 58 0 1.017
VT SORIANO CIMINO Poggio di Chia 22/07/2021 16,1 25,8 34,9 56 0 ----
VT TARQUINIA Portaccia 22/07/2021 18,3 25,3 31,1 70 0 ----
VT TUSCANIA Montebello 22/07/2021 19,6 26,9 32,5 48 0 ----
VT VETRALLA Marchionato 22/07/2021 18,5 26,4 33,6 53 0 ----
VT VITERBO Pisello 22/07/2021 18,6 25,5 34,3 58 8,1 ----
N.D. = Dati Non Disponibili
---- = Sensore non presente

Le misure esposte sono grezze, ovvero non sono state validate.